createdAt,value
2022-11-10T00:00:36.875Z,6.97
2022-11-10T00:03:05.486Z,6.96
2022-11-10T00:05:33.112Z,6.88
2022-11-10T00:08:05.235Z,6.92
2022-11-10T00:10:32.810Z,6.97
2022-11-10T00:13:01.405Z,6.83
2022-11-10T00:15:46.399Z,6.84
2022-11-10T00:18:13.021Z,6.30
2022-11-10T00:20:39.599Z,6.75
2022-11-10T00:23:06.169Z,6.88
2022-11-10T00:25:33.153Z,6.94
2022-11-10T00:28:00.157Z,6.95
2022-11-10T00:30:27.238Z,6.80
2022-11-10T00:32:53.795Z,6.73
2022-11-10T00:35:20.321Z,6.18
2022-11-10T00:37:49.593Z,6.40
2022-11-10T00:40:16.273Z,6.87
2022-11-10T00:42:42.798Z,6.88
2022-11-10T00:45:10.002Z,6.76
2022-11-10T00:47:36.520Z,6.83
2022-11-10T00:50:03.222Z,6.76
2022-11-10T00:52:29.761Z,6.64
2022-11-10T00:54:56.291Z,6.13
2022-11-10T00:57:22.816Z,6.59
2022-11-10T00:59:49.371Z,6.22
2022-11-10T01:02:15.898Z,6.49
2022-11-10T01:04:42.457Z,6.61
2022-11-10T01:07:09.047Z,6.58
2022-11-10T01:09:35.623Z,6.60
2022-11-10T01:12:02.157Z,6.55
2022-11-10T01:14:28.785Z,6.43
2022-11-10T01:16:55.333Z,6.45
2022-11-10T01:19:21.933Z,6.37
2022-11-10T01:21:51.693Z,6.30
2022-11-10T01:24:22.129Z,6.26
2022-11-10T01:26:48.978Z,6.26
2022-11-10T01:29:15.610Z,5.87
2022-11-10T01:31:42.217Z,6.18
2022-11-10T01:34:09.128Z,6.13
2022-11-10T01:36:35.870Z,6.05
2022-11-10T01:39:02.654Z,6.09
2022-11-10T01:41:29.190Z,6.14
2022-11-10T01:44:13.127Z,5.78
2022-11-10T01:46:39.680Z,6.18
2022-11-10T01:49:06.907Z,6.11
2022-11-10T01:51:45.576Z,5.94
2022-11-10T01:54:16.086Z,5.90
2022-11-10T01:56:47.724Z,5.50
2022-11-10T01:59:22.229Z,5.97
2022-11-10T02:01:51.426Z,5.54
2022-11-10T02:04:19.598Z,5.79
2022-11-10T02:06:48.761Z,4.81
2022-11-10T02:09:16.629Z,5.19
2022-11-10T02:11:44.317Z,5.88
2022-11-10T02:14:11.881Z,5.89
2022-11-10T02:16:39.608Z,5.90
2022-11-10T02:19:19.275Z,5.87
2022-11-10T02:21:45.860Z,5.79
2022-11-10T02:24:12.877Z,4.98
2022-11-10T02:26:53.454Z,5.76
2022-11-10T02:29:20.719Z,5.23
2022-11-10T02:31:47.328Z,5.69
2022-11-10T02:34:14.137Z,5.41
2022-11-10T02:36:40.712Z,5.71
2022-11-10T02:39:07.365Z,5.61
2022-11-10T02:41:33.990Z,5.49
2022-11-10T02:44:00.964Z,5.39
2022-11-10T02:46:27.642Z,5.53
2022-11-10T02:48:54.184Z,5.28
2022-11-10T02:51:20.766Z,5.43
2022-11-10T02:53:47.355Z,5.44
2022-11-10T02:56:13.881Z,5.52
2022-11-10T02:58:40.420Z,5.54
2022-11-10T03:01:07.465Z,5.49
2022-11-10T03:03:34.744Z,5.53
2022-11-10T03:06:01.506Z,4.87
2022-11-10T03:08:28.073Z,5.45
2022-11-10T03:10:56.396Z,5.33
2022-11-10T03:13:24.895Z,5.35
2022-11-10T03:15:52.132Z,5.23
2022-11-10T03:18:18.985Z,4.57
2022-11-10T03:20:48.317Z,4.65
2022-11-10T03:23:15.293Z,4.68
2022-11-10T03:25:41.897Z,4.71
2022-11-10T03:28:08.814Z,4.79
2022-11-10T03:30:35.501Z,4.65
2022-11-10T03:33:02.068Z,4.73
2022-11-10T03:35:29.024Z,4.77
2022-11-10T03:37:55.622Z,4.82
2022-11-10T03:40:22.199Z,4.77
2022-11-10T03:42:48.794Z,4.71
2022-11-10T03:45:16.134Z,4.65
2022-11-10T03:47:47.356Z,4.47
2022-11-10T03:50:15.237Z,4.61
2022-11-10T03:52:44.235Z,4.71
2022-11-10T03:55:18.070Z,4.78
2022-11-10T03:57:44.934Z,4.99
2022-11-10T04:00:13.536Z,4.98
2022-11-10T04:02:40.152Z,5.00
2022-11-10T04:05:26.699Z,4.93
2022-11-10T04:08:18.777Z,4.58
2022-11-10T04:10:45.575Z,4.29
2022-11-10T04:13:31.489Z,3.71
2022-11-10T04:15:58.089Z,3.73
2022-11-10T04:18:24.786Z,3.86
2022-11-10T04:21:04.645Z,4.02
2022-11-10T04:23:36.022Z,3.60
2022-11-10T04:26:25.612Z,4.20
2022-11-10T04:28:57.910Z,4.32
2022-11-10T04:31:26.572Z,4.13
2022-11-10T04:33:54.229Z,4.14
2022-11-10T04:36:25.695Z,4.06
2022-11-10T04:38:52.646Z,4.03
2022-11-10T04:41:19.255Z,3.94
2022-11-10T04:43:45.827Z,3.61
2022-11-10T04:46:34.613Z,3.65
2022-11-10T04:49:01.923Z,2.84
2022-11-10T04:51:31.495Z,3.64
2022-11-10T04:53:58.363Z,3.86
2022-11-10T04:56:26.046Z,3.64
2022-11-10T04:58:53.642Z,3.78
2022-11-10T05:01:23.629Z,3.76
2022-11-10T05:03:51.692Z,3.86
2022-11-10T05:06:18.878Z,3.84
2022-11-10T05:08:46.177Z,2.99
2022-11-10T05:11:13.278Z,3.77
2022-11-10T05:13:40.603Z,3.86
2022-11-10T05:16:07.617Z,3.89
2022-11-10T05:18:34.246Z,4.00
2022-11-10T05:21:00.826Z,4.02
2022-11-10T05:23:39.467Z,3.99
2022-11-10T05:26:08.981Z,4.09
2022-11-10T05:28:36.178Z,4.20
2022-11-10T05:31:02.952Z,3.38
2022-11-10T05:33:29.838Z,3.56
2022-11-10T05:35:56.680Z,4.15
2022-11-10T05:38:23.314Z,3.43
2022-11-10T05:40:49.941Z,4.40
2022-11-10T05:43:16.955Z,4.43
2022-11-10T05:45:43.741Z,4.21
2022-11-10T05:48:10.774Z,4.94
2022-11-10T05:50:37.394Z,4.48
2022-11-10T05:53:03.966Z,4.68
2022-11-10T05:55:31.952Z,4.71
2022-11-10T05:57:58.529Z,4.29
2022-11-10T06:00:28.185Z,4.06
2022-11-10T06:03:05.681Z,4.03
2022-11-10T06:05:35.157Z,3.83
2022-11-10T06:08:04.004Z,3.14
2022-11-10T06:10:32.000Z,4.12
2022-11-10T06:12:58.651Z,3.99
2022-11-10T06:15:25.988Z,4.65
2022-11-10T06:17:53.194Z,4.94
2022-11-10T06:20:20.438Z,5.00
2022-11-10T06:22:59.629Z,5.38
2022-11-10T06:25:26.601Z,5.47
2022-11-10T06:27:53.766Z,5.67
2022-11-10T06:30:20.934Z,5.68
2022-11-10T06:32:47.555Z,5.74
2022-11-10T06:35:14.169Z,5.84
2022-11-10T06:37:40.793Z,5.97
2022-11-10T06:40:08.953Z,5.60
2022-11-10T06:42:35.913Z,6.19
2022-11-10T06:45:02.672Z,5.94
2022-11-10T06:47:29.876Z,6.58
2022-11-10T06:49:56.456Z,6.75
2022-11-10T06:52:23.359Z,6.55
2022-11-10T06:54:49.987Z,6.97
2022-11-10T06:57:16.971Z,6.21
2022-11-10T06:59:43.534Z,7.32
2022-11-10T07:02:16.568Z,6.85
2022-11-10T07:04:43.375Z,7.38
2022-11-10T07:07:11.169Z,7.72
2022-11-10T07:09:37.946Z,7.24
2022-11-10T07:12:05.611Z,8.22
2022-11-10T07:14:32.174Z,8.36
2022-11-10T07:16:58.794Z,7.93
2022-11-10T07:19:25.361Z,7.64
2022-11-10T07:21:51.901Z,8.08
2022-11-10T07:24:18.449Z,8.14
2022-11-10T07:26:45.505Z,8.40
2022-11-10T07:29:12.111Z,8.41
2022-11-10T07:31:38.658Z,7.99
2022-11-10T07:34:05.296Z,6.63
2022-11-10T07:36:31.924Z,9.21
2022-11-10T07:38:58.491Z,9.34
2022-11-10T07:41:25.163Z,9.35
2022-11-10T07:43:51.728Z,10.20
2022-11-10T07:46:18.289Z,10.48
2022-11-10T07:48:44.868Z,10.81
2022-11-10T07:51:11.592Z,10.56
2022-11-10T07:53:38.833Z,10.62
2022-11-10T07:56:06.569Z,11.28
2022-11-10T07:58:34.184Z,11.45
2022-11-10T08:01:00.787Z,11.59
2022-11-10T08:03:27.530Z,11.53
2022-11-10T08:05:54.095Z,11.83
2022-11-10T08:08:20.658Z,11.66
2022-11-10T08:10:47.439Z,10.12
2022-11-10T08:13:14.518Z,11.46
2022-11-10T08:15:41.637Z,11.43
2022-11-10T08:18:15.912Z,11.52
2022-11-10T08:20:42.489Z,12.20
2022-11-10T08:23:09.142Z,12.19
2022-11-10T08:25:39.013Z,11.82
2022-11-10T08:28:10.929Z,12.86
2022-11-10T08:30:40.067Z,12.70
2022-11-10T08:33:08.865Z,13.04
2022-11-10T08:35:38.582Z,12.66
2022-11-10T08:38:09.545Z,12.66
2022-11-10T08:40:37.180Z,12.50
2022-11-10T08:43:07.448Z,12.37
2022-11-10T08:45:35.487Z,11.93
2022-11-10T08:48:07.716Z,11.71
2022-11-10T08:50:34.810Z,12.31
2022-11-10T08:53:03.580Z,12.82
2022-11-10T08:55:30.225Z,13.23
2022-11-10T08:58:01.832Z,13.54
2022-11-10T09:00:29.619Z,13.17
2022-11-10T09:02:57.212Z,13.98
2022-11-10T09:05:24.342Z,14.24
2022-11-10T09:07:51.264Z,14.44
2022-11-10T09:10:17.929Z,15.02
2022-11-10T09:12:45.119Z,14.48
2022-11-10T09:15:12.554Z,15.51
2022-11-10T09:17:40.688Z,15.66
2022-11-10T09:20:08.932Z,15.79
2022-11-10T09:22:36.437Z,15.96
2022-11-10T09:25:03.789Z,13.94
2022-11-10T09:27:30.660Z,15.82
2022-11-10T09:29:57.247Z,16.22
2022-11-10T09:32:23.903Z,16.29
2022-11-10T09:34:53.062Z,16.21
2022-11-10T09:37:20.177Z,16.24
2022-11-10T09:39:46.715Z,16.60
2022-11-10T09:42:34.314Z,16.64
2022-11-10T09:45:21.093Z,15.98
2022-11-10T09:48:07.973Z,17.11
2022-11-10T09:50:46.626Z,16.68
2022-11-10T09:53:21.347Z,16.51
2022-11-10T09:55:56.604Z,17.67
2022-11-10T09:58:29.988Z,17.37
2022-11-10T10:01:25.406Z,17.15
2022-11-10T10:04:27.294Z,17.13
2022-11-10T10:07:31.032Z,17.43
2022-11-10T10:10:21.974Z,17.23
2022-11-10T10:12:57.760Z,17.37
2022-11-10T10:15:42.317Z,17.45
2022-11-10T10:18:36.225Z,17.52
2022-11-10T10:21:05.747Z,17.42
2022-11-10T10:24:08.341Z,17.35
2022-11-10T10:26:38.193Z,17.79
2022-11-10T10:29:20.382Z,17.18
2022-11-10T10:31:50.240Z,16.75
2022-11-10T10:34:38.128Z,18.21
2022-11-10T10:37:04.804Z,18.02
2022-11-10T10:39:46.717Z,17.95
2022-11-10T10:42:28.133Z,18.52
2022-11-10T10:45:15.299Z,18.10
2022-11-10T10:47:43.203Z,18.52
2022-11-10T10:50:25.272Z,18.34
2022-11-10T10:53:21.583Z,18.78
2022-11-10T10:56:01.778Z,18.74
2022-11-10T10:58:31.639Z,18.56
2022-11-10T11:01:05.487Z,18.61
2022-11-10T11:03:48.418Z,19.13
2022-11-10T11:06:14.948Z,19.05
2022-11-10T11:09:06.682Z,19.02
2022-11-10T11:11:39.521Z,18.06
2022-11-10T11:14:27.475Z,17.11
2022-11-10T11:17:02.352Z,17.98
2022-11-10T11:19:35.476Z,18.28
2022-11-10T11:22:32.593Z,18.29
2022-11-10T11:25:08.154Z,18.46
2022-11-10T11:27:53.404Z,18.78
2022-11-10T11:30:23.561Z,18.44
2022-11-10T11:32:56.252Z,18.85
2022-11-10T11:35:47.643Z,18.44
2022-11-10T11:38:15.514Z,17.92
2022-11-10T11:41:03.991Z,18.89
2022-11-10T11:43:48.628Z,19.02
2022-11-10T11:46:49.625Z,17.53
2022-11-10T11:49:46.253Z,18.04
2022-11-10T11:52:27.903Z,18.62
2022-11-10T11:55:19.221Z,18.09
2022-11-10T11:58:23.502Z,17.94
2022-11-10T12:01:24.646Z,18.28
2022-11-10T12:04:29.293Z,18.25
2022-11-10T12:07:09.006Z,18.58
2022-11-10T12:09:44.630Z,18.70
2022-11-10T12:12:53.532Z,18.89
2022-11-10T12:15:33.377Z,19.01
2022-11-10T12:18:18.785Z,19.11
2022-11-10T12:20:57.723Z,19.16
2022-11-10T12:23:49.750Z,19.26
2022-11-10T12:26:19.013Z,19.25
2022-11-10T12:29:00.167Z,19.05
2022-11-10T12:31:30.343Z,19.09
2022-11-10T12:33:58.847Z,18.97
2022-11-10T12:36:28.338Z,19.18
2022-11-10T12:39:01.485Z,18.34
2022-11-10T12:41:46.396Z,18.90
2022-11-10T12:44:20.512Z,18.77
2022-11-10T12:46:52.635Z,18.46
2022-11-10T12:49:33.120Z,18.61
2022-11-10T12:52:17.818Z,18.87
2022-11-10T12:54:46.716Z,18.79
2022-11-10T12:57:40.671Z,18.83
2022-11-10T13:00:27.962Z,18.39
2022-11-10T13:02:56.841Z,18.69
2022-11-10T13:05:28.877Z,18.35
2022-11-10T13:08:27.562Z,18.82
2022-11-10T13:10:55.707Z,18.31
2022-11-10T13:13:23.923Z,18.35
2022-11-10T13:15:56.142Z,17.85
2022-11-10T13:18:30.122Z,17.93
2022-11-10T13:20:58.165Z,17.89
2022-11-10T13:23:33.430Z,18.04
2022-11-10T13:26:08.065Z,18.16
2022-11-10T13:28:47.021Z,18.25
2022-11-10T13:31:28.400Z,18.05
2022-11-10T13:34:05.449Z,18.19
2022-11-10T13:36:40.958Z,18.18
2022-11-10T13:39:19.784Z,18.24
2022-11-10T13:41:53.084Z,18.29
2022-11-10T13:44:30.178Z,17.97
2022-11-10T13:47:09.206Z,17.83
2022-11-10T13:50:27.061Z,17.78
2022-11-10T13:52:59.472Z,17.58
2022-11-10T13:56:03.197Z,17.48
2022-11-10T13:58:33.168Z,17.53
2022-11-10T14:01:18.484Z,17.43
2022-11-10T14:03:45.116Z,17.28
2022-11-10T14:06:18.812Z,16.74
2022-11-10T14:08:52.591Z,17.13
2022-11-10T14:11:25.760Z,17.14
2022-11-10T14:14:25.076Z,17.13
2022-11-10T14:16:53.300Z,17.05
2022-11-10T14:19:31.551Z,17.08
2022-11-10T14:22:35.250Z,16.92
2022-11-10T14:25:06.791Z,16.87
2022-11-10T14:27:35.646Z,16.35
2022-11-10T14:30:07.058Z,16.63
2022-11-10T14:32:34.156Z,16.67
2022-11-10T14:35:02.133Z,16.27
2022-11-10T14:37:29.812Z,16.27
2022-11-10T14:39:59.454Z,15.82
2022-11-10T14:42:31.308Z,15.67
2022-11-10T14:45:16.227Z,15.86
2022-11-10T14:47:43.080Z,15.84
2022-11-10T14:50:19.515Z,15.54
2022-11-10T14:52:48.371Z,15.50
2022-11-10T14:55:21.087Z,15.39
2022-11-10T14:57:54.354Z,15.45
2022-11-10T15:00:27.130Z,15.41
2022-11-10T15:02:56.014Z,14.91
2022-11-10T15:05:23.429Z,14.92
2022-11-10T15:07:53.882Z,15.18
2022-11-10T15:10:26.852Z,15.14
2022-11-10T15:13:02.744Z,15.06
2022-11-10T15:15:29.634Z,14.90
2022-11-10T15:17:56.325Z,14.76
2022-11-10T15:20:31.875Z,14.70
2022-11-10T15:23:00.566Z,14.81
2022-11-10T15:25:39.854Z,14.40
2022-11-10T15:28:12.496Z,14.27
2022-11-10T15:30:47.992Z,14.05
2022-11-10T15:33:19.577Z,13.53
2022-11-10T15:35:46.126Z,13.95
2022-11-10T15:38:15.557Z,14.00
2022-11-10T15:40:46.448Z,13.77
2022-11-10T15:43:33.267Z,13.42
2022-11-10T15:46:02.495Z,12.92
2022-11-10T15:48:41.452Z,13.27
2022-11-10T15:51:13.305Z,13.03
2022-11-10T15:53:46.621Z,12.14
2022-11-10T15:56:17.047Z,12.97
2022-11-10T15:58:49.189Z,12.45
2022-11-10T16:01:16.965Z,12.83
2022-11-10T16:03:44.051Z,12.61
2022-11-10T16:06:15.221Z,12.80
2022-11-10T16:08:42.204Z,12.78
2022-11-10T16:11:16.307Z,12.85
2022-11-10T16:13:43.599Z,12.70
2022-11-10T16:16:13.794Z,12.64
2022-11-10T16:18:43.781Z,12.44
2022-11-10T16:21:14.943Z,11.72
2022-11-10T16:23:42.264Z,12.36
2022-11-10T16:26:14.444Z,12.04
2022-11-10T16:28:44.158Z,11.82
2022-11-10T16:31:11.734Z,12.01
2022-11-10T16:33:38.638Z,12.02
2022-11-10T16:36:05.632Z,12.04
2022-11-10T16:38:32.592Z,11.85
2022-11-10T16:41:02.090Z,11.84
2022-11-10T16:43:31.054Z,11.60
2022-11-10T16:46:00.389Z,11.79
2022-11-10T16:48:30.614Z,11.70
2022-11-10T16:50:59.106Z,11.51
2022-11-10T16:53:28.717Z,11.43
2022-11-10T16:55:55.242Z,11.39
2022-11-10T16:58:24.236Z,11.40
2022-11-10T17:00:51.378Z,11.49
2022-11-10T17:03:33.229Z,11.38
2022-11-10T17:06:00.194Z,10.62
2022-11-10T17:08:30.173Z,10.77
2022-11-10T17:10:56.993Z,10.97
2022-11-10T17:13:24.881Z,10.96
2022-11-10T17:16:05.694Z,10.91
2022-11-10T17:18:34.223Z,10.87
2022-11-10T17:21:02.335Z,10.22
2022-11-10T17:23:29.305Z,10.62
2022-11-10T17:25:55.991Z,10.60
2022-11-10T17:28:22.685Z,10.16
2022-11-10T17:30:49.279Z,10.60
2022-11-10T17:33:15.906Z,10.54
2022-11-10T17:35:47.403Z,10.24
2022-11-10T17:38:22.103Z,10.48
2022-11-10T17:40:48.785Z,10.40
2022-11-10T17:43:15.626Z,10.33
2022-11-10T17:45:42.535Z,10.28
2022-11-10T17:48:09.349Z,10.29
2022-11-10T17:50:37.678Z,10.23
2022-11-10T17:53:15.080Z,10.11
2022-11-10T17:55:41.843Z,9.91
2022-11-10T17:58:09.758Z,9.90
2022-11-10T18:00:36.462Z,9.63
2022-11-10T18:03:03.224Z,9.99
2022-11-10T18:05:29.766Z,9.46
2022-11-10T18:07:57.772Z,9.83
2022-11-10T18:10:24.352Z,9.81
2022-11-10T18:12:50.908Z,9.84
2022-11-10T18:15:17.869Z,9.75
2022-11-10T18:17:44.643Z,9.68
2022-11-10T18:20:12.690Z,9.23
2022-11-10T18:22:40.425Z,9.44
2022-11-10T18:25:09.073Z,8.86
2022-11-10T18:27:36.365Z,9.35
2022-11-10T18:30:04.834Z,9.18
2022-11-10T18:32:31.902Z,9.17
2022-11-10T18:34:58.433Z,8.94
2022-11-10T18:37:25.067Z,9.04
2022-11-10T18:39:51.610Z,8.96
2022-11-10T18:42:18.369Z,9.04
2022-11-10T18:44:44.908Z,8.48
2022-11-10T18:47:13.032Z,9.10
2022-11-10T18:49:39.578Z,9.03
2022-11-10T18:52:06.393Z,9.06
2022-11-10T18:54:33.409Z,9.05
2022-11-10T18:56:59.948Z,8.92
2022-11-10T18:59:26.493Z,8.90
2022-11-10T19:01:53.861Z,8.55
2022-11-10T19:04:20.569Z,8.60
2022-11-10T19:06:47.157Z,8.38
2022-11-10T19:09:13.932Z,8.56
2022-11-10T19:11:40.502Z,8.53
2022-11-10T19:14:07.057Z,8.14
2022-11-10T19:16:33.644Z,8.51
2022-11-10T19:19:00.269Z,8.16
2022-11-10T19:21:27.716Z,8.48
2022-11-10T19:23:56.374Z,7.84
2022-11-10T19:26:24.552Z,8.19
2022-11-10T19:28:53.363Z,8.16
2022-11-10T19:31:22.860Z,8.18
2022-11-10T19:33:52.666Z,8.01
2022-11-10T19:36:22.634Z,8.25
2022-11-10T19:38:49.266Z,8.25
2022-11-10T19:41:20.709Z,8.30
2022-11-10T19:43:47.840Z,8.30
2022-11-10T19:46:17.162Z,8.33
2022-11-10T19:48:44.271Z,8.30
2022-11-10T19:51:13.585Z,8.29
2022-11-10T19:53:44.797Z,8.20
2022-11-10T19:56:17.524Z,8.16
2022-11-10T19:58:44.177Z,8.11
2022-11-10T20:01:11.966Z,7.63
2022-11-10T20:03:39.425Z,8.15
2022-11-10T20:06:08.593Z,8.04
2022-11-10T20:08:35.962Z,8.11
2022-11-10T20:11:05.502Z,8.09
2022-11-10T20:13:32.545Z,7.53
2022-11-10T20:15:59.098Z,8.03
2022-11-10T20:18:25.709Z,8.07
2022-11-10T20:20:52.258Z,8.09
2022-11-10T20:23:18.947Z,8.00
2022-11-10T20:25:45.654Z,7.22
2022-11-10T20:28:13.889Z,7.86
2022-11-10T20:30:43.515Z,7.36
2022-11-10T20:33:10.685Z,7.46
2022-11-10T20:35:41.987Z,7.68
2022-11-10T20:38:08.581Z,7.66
2022-11-10T20:40:44.431Z,7.71
2022-11-10T20:43:12.940Z,7.31
2022-11-10T20:45:39.622Z,7.68
2022-11-10T20:48:06.162Z,7.71
2022-11-10T20:50:32.750Z,7.72
2022-11-10T20:52:59.357Z,7.76
2022-11-10T20:55:51.663Z,7.72
2022-11-10T20:58:12.425Z,7.22
2022-11-10T21:00:43.521Z,7.67
2022-11-10T21:03:10.371Z,7.68
2022-11-10T21:05:36.927Z,7.53
2022-11-10T21:08:03.582Z,7.61
2022-11-10T21:10:30.146Z,7.30
2022-11-10T21:12:57.376Z,7.61
2022-11-10T21:15:23.928Z,7.52
2022-11-10T21:17:50.554Z,7.54
2022-11-10T21:20:17.212Z,7.53
2022-11-10T21:22:43.783Z,7.39
2022-11-10T21:25:10.438Z,7.30
2022-11-10T21:27:37.021Z,7.49
2022-11-10T21:30:06.116Z,7.27
2022-11-10T21:32:35.467Z,7.03
2022-11-10T21:35:02.060Z,7.01
2022-11-10T21:37:28.666Z,6.80
2022-11-10T21:39:55.759Z,6.65
2022-11-10T21:42:23.388Z,6.64
2022-11-10T21:44:49.908Z,6.80
2022-11-10T21:47:16.514Z,6.85
2022-11-10T21:49:43.055Z,6.83
2022-11-10T21:52:09.689Z,6.93
2022-11-10T21:54:36.248Z,6.93
2022-11-10T21:57:02.865Z,6.26
2022-11-10T21:59:29.450Z,7.04
2022-11-10T22:01:55.995Z,6.90
2022-11-10T22:04:22.539Z,7.01
2022-11-10T22:07:07.617Z,7.02
2022-11-10T22:09:52.831Z,7.10
2022-11-10T22:12:37.622Z,7.14
2022-11-10T22:15:23.607Z,7.20
2022-11-10T22:18:08.464Z,7.11
2022-11-10T22:20:35.113Z,7.09
2022-11-10T22:23:01.673Z,7.09
2022-11-10T22:25:28.229Z,7.14
2022-11-10T22:27:54.794Z,7.15
2022-11-10T22:30:21.353Z,7.08
2022-11-10T22:32:47.894Z,6.96
2022-11-10T22:35:34.466Z,6.72
2022-11-10T22:38:07.257Z,6.42
2022-11-10T22:40:54.073Z,7.06
2022-11-10T22:43:38.847Z,6.78
2022-11-10T22:46:05.589Z,6.95
2022-11-10T22:48:32.925Z,6.86
2022-11-10T22:51:00.486Z,6.78
2022-11-10T22:53:27.604Z,6.95
2022-11-10T22:55:58.702Z,6.88
2022-11-10T22:58:25.256Z,6.61
2022-11-10T23:00:51.800Z,6.08
2022-11-10T23:03:18.322Z,6.62
2022-11-10T23:05:53.604Z,6.54
2022-11-10T23:08:22.674Z,6.62
2022-11-10T23:10:49.273Z,3.91
2022-11-10T23:13:15.872Z,6.69
2022-11-10T23:15:42.497Z,6.81
2022-11-10T23:18:09.048Z,5.96
2022-11-10T23:20:35.589Z,6.74
2022-11-10T23:23:02.172Z,6.83
2022-11-10T23:25:28.718Z,6.79
2022-11-10T23:27:56.585Z,6.65
2022-11-10T23:30:24.291Z,6.62
2022-11-10T23:32:50.860Z,6.21
2022-11-10T23:35:17.432Z,5.59
2022-11-10T23:37:43.972Z,5.75
2022-11-10T23:40:11.078Z,5.80
2022-11-10T23:42:37.657Z,5.13
2022-11-10T23:45:04.863Z,6.04
2022-11-10T23:47:31.457Z,6.17
2022-11-10T23:49:57.999Z,6.19
2022-11-10T23:52:24.543Z,5.92
2022-11-10T23:54:51.076Z,6.23
2022-11-10T23:57:17.626Z,5.87
2022-11-10T23:59:44.172Z,6.33
